Terminal Aerodrome Forecast
Issued by NWS Buffalo, NY

Home | Current Version | Previous Version | Text Only | Print | Product List | Glossary On
Versions: 1 2 3 4 5 6 7 8 9 10 11 12 13 14 15 16 17 18 19 20 21 22 23
000
FTUS41 KBUF 260525
TAFROC
TAF
KROC 260525Z 2606/2706 23005KT P6SM SCT250
     FM261300 19004KT P6SM BKN060
     FM261600 18004KT P6SM VCTS BKN050CB BKN100
     FM261800 19007KT 6SM -SHRA VCTS BKN040CB OVC100
     FM262300 00000KT P6SM VCSH BKN030 OVC100
     FM270100 00000KT P6SM BKN060=

USA.gov is the U.S. government's official web portal to all federal, state and local government web resources and services.